Etna, Pennsylvania
Current Conditions -  °F | °C
As of 12:53 AM on Monday 26 Jan 2015 (Local Time) from KAGC Reporting Station
Light Snow Light Snow  
Wind Chill: 30°   Ceiling: 300
Heat Index: 30°   Visibility: 1.2mi
Dew Point: 27°   Wind: 0mph
Humidity: 88%   Direction: NA
Pressure: 29.72"   Gusts: NA
Location:  40.5063°N, 79.9532°W
Report Text: KAGC 260553Z 00000KT 1 1/4SM -SN BR OVC003 M01/M03 A2972 RMK AO2 SLP081 P0003 60021 T10111028 10000 21011 58015
Loading
Personal Weather Stations






























Interactive Weather Map New forecast layout! Learn more

10-Day Weather Forecast

Advertisements
Track Severe Weather on mobile